Terminal Aerodrome Forecast
Issued by NWS

Home | Current Version | Previous Version | Text Only | Print | Product List | Glossary Off
Versions: 1 2 3 4 5 6 7 8 9 10 11 12 13 14 15 16 17 18

000
FTUS43 KBIS 261726
TAFDIK
TAF
KDIK 261726Z 2618/2718 31020G32KT P6SM BKN040
     FM262000 30020G32KT P6SM SCT060
     FM270000 30014G23KT P6SM SCT070
     FM270300 27006KT P6SM FEW070 SCT250
     FM271600 29014KT P6SM BKN060=

USA.gov is the U.S. government's official web portal to all federal, state and local government web resources and services.